sensor_id;sensor_type;location;lat;lon;timestamp;temperature;humidity
27795;DHT22;15176;50.844;4.412;2023-03-23T00:01:57;14.70;99.90
27795;DHT22;15176;50.844;4.412;2023-03-23T00:04:29;14.50;99.90
27795;DHT22;15176;50.844;4.412;2023-03-23T00:06:55;14.10;99.90
27795;DHT22;15176;50.844;4.412;2023-03-23T00:09:21;14.20;99.90
27795;DHT22;15176;50.844;4.412;2023-03-23T00:11:51;14.00;99.90
27795;DHT22;15176;50.844;4.412;2023-03-23T00:14:18;14.10;99.90
27795;DHT22;15176;50.844;4.412;2023-03-23T00:16:48;14.00;99.90
27795;DHT22;15176;50.844;4.412;2023-03-23T00:19:15;14.00;99.90
27795;DHT22;15176;50.844;4.412;2023-03-23T00:21:49;13.90;99.90
27795;DHT22;15176;50.844;4.412;2023-03-23T00:24:25;13.90;99.90
27795;DHT22;15176;50.844;4.412;2023-03-23T00:26:51;13.90;99.90
27795;DHT22;15176;50.844;4.412;2023-03-23T00:29:20;13.90;99.90
27795;DHT22;15176;50.844;4.412;2023-03-23T00:31:47;13.80;99.90
27795;DHT22;15176;50.844;4.412;2023-03-23T00:34:22;14.00;99.90
27795;DHT22;15176;50.844;4.412;2023-03-23T00:36:52;14.10;99.90
27795;DHT22;15176;50.844;4.412;2023-03-23T00:39:26;14.10;99.90
27795;DHT22;15176;50.844;4.412;2023-03-23T00:41:52;14.00;99.90
27795;DHT22;15176;50.844;4.412;2023-03-23T00:44:20;14.10;99.90
27795;DHT22;15176;50.844;4.412;2023-03-23T00:46:49;14.00;99.90
27795;DHT22;15176;50.844;4.412;2023-03-23T00:49:17;14.30;99.90
27795;DHT22;15176;50.844;4.412;2023-03-23T00:51:43;14.40;99.90
27795;DHT22;15176;50.844;4.412;2023-03-23T00:54:10;14.20;99.90
27795;DHT22;15176;50.844;4.412;2023-03-23T00:56:36;14.20;99.90
27795;DHT22;15176;50.844;4.412;2023-03-23T00:59:04;14.30;99.90
27795;DHT22;15176;50.844;4.412;2023-03-23T01:01:38;14.40;99.90
27795;DHT22;15176;50.844;4.412;2023-03-23T01:04:05;14.50;99.90
27795;DHT22;15176;50.844;4.412;2023-03-23T01:06:33;14.30;99.90
27795;DHT22;15176;50.844;4.412;2023-03-23T01:09:01;14.30;99.90
27795;DHT22;15176;50.844;4.412;2023-03-23T01:11:27;14.40;99.90
27795;DHT22;15176;50.844;4.412;2023-03-23T01:13:53;14.30;99.90
27795;DHT22;15176;50.844;4.412;2023-03-23T01:16:22;14.30;99.90
27795;DHT22;15176;50.844;4.412;2023-03-23T01:18:47;14.40;99.90
27795;DHT22;15176;50.844;4.412;2023-03-23T01:21:16;14.10;99.90
27795;DHT22;15176;50.844;4.412;2023-03-23T01:23:42;14.00;99.90
27795;DHT22;15176;50.844;4.412;2023-03-23T01:26:13;14.10;99.90
27795;DHT22;15176;50.844;4.412;2023-03-23T01:28:46;14.20;99.90
27795;DHT22;15176;50.844;4.412;2023-03-23T01:31:17;14.10;99.90
27795;DHT22;15176;50.844;4.412;2023-03-23T01:33:44;14.00;99.90
27795;DHT22;15176;50.844;4.412;2023-03-23T01:36:16;14.20;99.90
27795;DHT22;15176;50.844;4.412;2023-03-23T01:38:43;14.00;99.90
27795;DHT22;15176;50.844;4.412;2023-03-23T01:41:10;14.00;99.90
27795;DHT22;15176;50.844;4.412;2023-03-23T01:43:53;13.80;99.90
27795;DHT22;15176;50.844;4.412;2023-03-23T01:46:18;13.90;99.90
27795;DHT22;15176;50.844;4.412;2023-03-23T01:48:50;14.00;99.90
27795;DHT22;15176;50.844;4.412;2023-03-23T01:51:17;14.20;99.90
27795;DHT22;15176;50.844;4.412;2023-03-23T01:54:04;14.30;99.90
27795;DHT22;15176;50.844;4.412;2023-03-23T01:56:41;14.30;99.90
27795;DHT22;15176;50.844;4.412;2023-03-23T01:59:11;14.40;99.90
27795;DHT22;15176;50.844;4.412;2023-03-23T02:01:39;14.30;99.90
27795;DHT22;15176;50.844;4.412;2023-03-23T02:04:11;14.10;99.90
27795;DHT22;15176;50.844;4.412;2023-03-23T02:06:38;14.10;99.90
27795;DHT22;15176;50.844;4.412;2023-03-23T02:09:04;14.20;99.90
27795;DHT22;15176;50.844;4.412;2023-03-23T02:11:33;14.40;99.90
27795;DHT22;15176;50.844;4.412;2023-03-23T02:13:59;14.50;99.90
27795;DHT22;15176;50.844;4.412;2023-03-23T02:16:34;14.30;99.90
27795;DHT22;15176;50.844;4.412;2023-03-23T02:19:41;14.20;99.90
27795;DHT22;15176;50.844;4.412;2023-03-23T02:25:23;14.10;99.90
27795;DHT22;15176;50.844;4.412;2023-03-23T02:33:36;13.90;99.90
27795;DHT22;15176;50.844;4.412;2023-03-23T02:39:11;13.90;99.90
27795;DHT22;15176;50.844;4.412;2023-03-23T02:41:52;14.00;99.90
27795;DHT22;15176;50.844;4.412;2023-03-23T02:44:20;14.00;99.90
27795;DHT22;15176;50.844;4.412;2023-03-23T02:46:48;14.00;99.90
27795;DHT22;15176;50.844;4.412;2023-03-23T02:49:15;14.00;99.90
27795;DHT22;15176;50.844;4.412;2023-03-23T02:51:44;14.00;99.90
27795;DHT22;15176;50.844;4.412;2023-03-23T02:54:12;13.90;99.90
27795;DHT22;15176;50.844;4.412;2023-03-23T02:56:38;14.10;99.90
27795;DHT22;15176;50.844;4.412;2023-03-23T02:59:05;14.10;99.90
27795;DHT22;15176;50.844;4.412;2023-03-23T03:04:13;13.90;99.90
27795;DHT22;15176;50.844;4.412;2023-03-23T03:09:49;14.00;99.90
27795;DHT22;15176;50.844;4.412;2023-03-23T03:18:03;13.80;99.90
27795;DHT22;15176;50.844;4.412;2023-03-23T03:20:32;13.80;99.90
27795;DHT22;15176;50.844;4.412;2023-03-23T03:23:00;14.00;99.90
27795;DHT22;15176;50.844;4.412;2023-03-23T03:25:27;14.10;99.90
27795;DHT22;15176;50.844;4.412;2023-03-23T03:27:54;14.20;99.90
27795;DHT22;15176;50.844;4.412;2023-03-23T03:30:25;14.10;99.90
27795;DHT22;15176;50.844;4.412;2023-03-23T03:32:52;14.20;99.90
27795;DHT22;15176;50.844;4.412;2023-03-23T03:35:23;14.30;99.90
27795;DHT22;15176;50.844;4.412;2023-03-23T03:37:55;14.20;99.90
27795;DHT22;15176;50.844;4.412;2023-03-23T03:40:22;14.20;99.90
27795;DHT22;15176;50.844;4.412;2023-03-23T03:42:49;14.10;99.90
27795;DHT22;15176;50.844;4.412;2023-03-23T03:45:18;14.00;99.90
27795;DHT22;15176;50.844;4.412;2023-03-23T03:47:44;14.10;99.90
27795;DHT22;15176;50.844;4.412;2023-03-23T03:50:11;14.00;99.90
27795;DHT22;15176;50.844;4.412;2023-03-23T03:52:40;14.10;99.90
27795;DHT22;15176;50.844;4.412;2023-03-23T03:55:06;14.00;99.90
27795;DHT22;15176;50.844;4.412;2023-03-23T03:57:33;14.00;99.90
27795;DHT22;15176;50.844;4.412;2023-03-23T03:59:59;14.00;99.90
27795;DHT22;15176;50.844;4.412;2023-03-23T04:02:26;14.00;99.90
27795;DHT22;15176;50.844;4.412;2023-03-23T04:04:51;14.10;99.90
27795;DHT22;15176;50.844;4.412;2023-03-23T04:07:20;14.20;99.90
27795;DHT22;15176;50.844;4.412;2023-03-23T04:09:46;14.10;99.90
27795;DHT22;15176;50.844;4.412;2023-03-23T04:12:14;14.10;99.90
27795;DHT22;15176;50.844;4.412;2023-03-23T04:14:40;14.00;99.90
27795;DHT22;15176;50.844;4.412;2023-03-23T04:17:06;13.90;99.90
27795;DHT22;15176;50.844;4.412;2023-03-23T04:19:35;14.00;99.90
27795;DHT22;15176;50.844;4.412;2023-03-23T04:22:02;14.00;99.90
27795;DHT22;15176;50.844;4.412;2023-03-23T04:24:28;13.90;99.90
27795;DHT22;15176;50.844;4.412;2023-03-23T04:26:56;13.80;99.90
27795;DHT22;15176;50.844;4.412;2023-03-23T04:29:22;13.70;99.90
27795;DHT22;15176;50.844;4.412;2023-03-23T04:31:47;13.70;99.90
27795;DHT22;15176;50.844;4.412;2023-03-23T04:34:23;13.80;99.90
27795;DHT22;15176;50.844;4.412;2023-03-23T04:36:49;13.80;99.90
27795;DHT22;15176;50.844;4.412;2023-03-23T04:39:16;13.80;99.90
27795;DHT22;15176;50.844;4.412;2023-03-23T04:41:41;13.60;99.90
27795;DHT22;15176;50.844;4.412;2023-03-23T04:44:07;13.80;99.90
27795;DHT22;15176;50.844;4.412;2023-03-23T04:46:33;13.80;99.90
27795;DHT22;15176;50.844;4.412;2023-03-23T04:49:00;13.80;99.90
27795;DHT22;15176;50.844;4.412;2023-03-23T04:51:27;13.70;99.90
27795;DHT22;15176;50.844;4.412;2023-03-23T04:53:53;13.70;99.90
27795;DHT22;15176;50.844;4.412;2023-03-23T04:56:19;13.70;99.90
27795;DHT22;15176;50.844;4.412;2023-03-23T04:58:45;13.80;99.90
27795;DHT22;15176;50.844;4.412;2023-03-23T05:01:12;13.70;99.90
27795;DHT22;15176;50.844;4.412;2023-03-23T05:03:43;13.80;99.90
27795;DHT22;15176;50.844;4.412;2023-03-23T05:06:15;13.80;99.90
27795;DHT22;15176;50.844;4.412;2023-03-23T05:08:48;13.80;99.90
27795;DHT22;15176;50.844;4.412;2023-03-23T05:11:14;13.70;99.90
27795;DHT22;15176;50.844;4.412;2023-03-23T05:13:39;13.80;99.90
27795;DHT22;15176;50.844;4.412;2023-03-23T05:16:06;13.50;99.90
27795;DHT22;15176;50.844;4.412;2023-03-23T05:18:31;13.70;99.90
27795;DHT22;15176;50.844;4.412;2023-03-23T05:21:02;13.80;99.90
27795;DHT22;15176;50.844;4.412;2023-03-23T05:23:30;13.70;99.90
27795;DHT22;15176;50.844;4.412;2023-03-23T05:25:59;13.80;99.90
27795;DHT22;15176;50.844;4.412;2023-03-23T05:28:27;13.80;99.90
27795;DHT22;15176;50.844;4.412;2023-03-23T05:30:54;13.90;99.90
27795;DHT22;15176;50.844;4.412;2023-03-23T05:33:25;14.00;99.90
27795;DHT22;15176;50.844;4.412;2023-03-23T05:35:52;13.80;99.90
27795;DHT22;15176;50.844;4.412;2023-03-23T05:38:17;13.70;99.90
27795;DHT22;15176;50.844;4.412;2023-03-23T05:40:43;13.90;99.90
27795;DHT22;15176;50.844;4.412;2023-03-23T05:43:09;14.00;99.90
27795;DHT22;15176;50.844;4.412;2023-03-23T05:45:35;13.80;99.90
27795;DHT22;15176;50.844;4.412;2023-03-23T05:48:01;13.60;99.90
27795;DHT22;15176;50.844;4.412;2023-03-23T05:50:27;13.50;99.90
27795;DHT22;15176;50.844;4.412;2023-03-23T05:52:54;13.80;99.90
27795;DHT22;15176;50.844;4.412;2023-03-23T05:55:26;14.00;99.90
27795;DHT22;15176;50.844;4.412;2023-03-23T05:57:52;14.20;99.90
27795;DHT22;15176;50.844;4.412;2023-03-23T06:00:19;14.20;99.90
27795;DHT22;15176;50.844;4.412;2023-03-23T06:02:48;14.10;99.90
27795;DHT22;15176;50.844;4.412;2023-03-23T06:05:15;14.20;99.90
27795;DHT22;15176;50.844;4.412;2023-03-23T06:07:42;14.10;99.90
27795;DHT22;15176;50.844;4.412;2023-03-23T06:10:08;14.10;99.90
27795;DHT22;15176;50.844;4.412;2023-03-23T06:12:39;14.30;99.90
27795;DHT22;15176;50.844;4.412;2023-03-23T06:15:06;14.10;99.90
27795;DHT22;15176;50.844;4.412;2023-03-23T06:17:33;13.80;99.90
27795;DHT22;15176;50.844;4.412;2023-03-23T06:19:59;13.70;99.90
27795;DHT22;15176;50.844;4.412;2023-03-23T06:22:25;13.80;99.90
27795;DHT22;15176;50.844;4.412;2023-03-23T06:24:51;13.90;99.90
27795;DHT22;15176;50.844;4.412;2023-03-23T06:27:17;14.00;99.90
27795;DHT22;15176;50.844;4.412;2023-03-23T06:29:43;13.90;99.90
27795;DHT22;15176;50.844;4.412;2023-03-23T06:32:10;13.70;99.90
27795;DHT22;15176;50.844;4.412;2023-03-23T06:34:37;13.70;99.90
27795;DHT22;15176;50.844;4.412;2023-03-23T06:37:03;13.80;99.90
27795;DHT22;15176;50.844;4.412;2023-03-23T06:39:28;13.80;99.90
27795;DHT22;15176;50.844;4.412;2023-03-23T06:42:01;13.90;99.90
27795;DHT22;15176;50.844;4.412;2023-03-23T06:44:28;13.90;99.90
27795;DHT22;15176;50.844;4.412;2023-03-23T06:46:54;14.00;99.90
27795;DHT22;15176;50.844;4.412;2023-03-23T06:49:20;14.10;99.90
27795;DHT22;15176;50.844;4.412;2023-03-23T06:51:46;14.00;99.90
27795;DHT22;15176;50.844;4.412;2023-03-23T06:54:17;14.00;99.90
27795;DHT22;15176;50.844;4.412;2023-03-23T06:56:43;13.90;99.90
27795;DHT22;15176;50.844;4.412;2023-03-23T06:59:09;13.70;99.90
27795;DHT22;15176;50.844;4.412;2023-03-23T07:01:37;13.90;99.90
27795;DHT22;15176;50.844;4.412;2023-03-23T07:04:04;14.10;99.90
27795;DHT22;15176;50.844;4.412;2023-03-23T07:06:29;14.00;99.90
27795;DHT22;15176;50.844;4.412;2023-03-23T07:08:55;14.20;99.90
27795;DHT22;15176;50.844;4.412;2023-03-23T07:11:21;14.10;99.90
27795;DHT22;15176;50.844;4.412;2023-03-23T07:13:47;14.10;99.90
27795;DHT22;15176;50.844;4.412;2023-03-23T07:16:15;14.10;99.90
27795;DHT22;15176;50.844;4.412;2023-03-23T07:18:42;13.60;99.90
27795;DHT22;15176;50.844;4.412;2023-03-23T07:21:07;13.00;99.90
27795;DHT22;15176;50.844;4.412;2023-03-23T07:23:33;12.80;99.90
27795;DHT22;15176;50.844;4.412;2023-03-23T07:25:59;12.60;99.90
27795;DHT22;15176;50.844;4.412;2023-03-23T07:28:27;13.00;99.90
27795;DHT22;15176;50.844;4.412;2023-03-23T07:30:52;13.00;99.90
27795;DHT22;15176;50.844;4.412;2023-03-23T07:33:24;13.20;99.90
27795;DHT22;15176;50.844;4.412;2023-03-23T07:35:50;13.10;99.90
27795;DHT22;15176;50.844;4.412;2023-03-23T07:38:16;13.00;99.90
27795;DHT22;15176;50.844;4.412;2023-03-23T07:40:42;13.10;99.90
27795;DHT22;15176;50.844;4.412;2023-03-23T07:43:09;13.00;99.90
27795;DHT22;15176;50.844;4.412;2023-03-23T07:45:35;13.00;99.90
27795;DHT22;15176;50.844;4.412;2023-03-23T07:48:01;13.20;99.90
27795;DHT22;15176;50.844;4.412;2023-03-23T07:50:27;13.00;99.90
27795;DHT22;15176;50.844;4.412;2023-03-23T07:52:57;13.30;99.90
27795;DHT22;15176;50.844;4.412;2023-03-23T07:55:23;13.40;99.90
27795;DHT22;15176;50.844;4.412;2023-03-23T07:57:54;13.60;99.90
27795;DHT22;15176;50.844;4.412;2023-03-23T08:00:21;13.90;99.90
27795;DHT22;15176;50.844;4.412;2023-03-23T08:02:53;14.00;99.90
27795;DHT22;15176;50.844;4.412;2023-03-23T08:05:21;13.80;99.90
27795;DHT22;15176;50.844;4.412;2023-03-23T08:07:54;14.00;99.90
27795;DHT22;15176;50.844;4.412;2023-03-23T08:10:21;14.00;99.90
27795;DHT22;15176;50.844;4.412;2023-03-23T08:12:52;13.80;99.90
27795;DHT22;15176;50.844;4.412;2023-03-23T08:15:19;13.60;99.90
27795;DHT22;15176;50.844;4.412;2023-03-23T08:17:48;13.70;99.90
27795;DHT22;15176;50.844;4.412;2023-03-23T08:20:14;13.70;99.90
27795;DHT22;15176;50.844;4.412;2023-03-23T08:22:41;13.30;99.90
27795;DHT22;15176;50.844;4.412;2023-03-23T08:25:09;13.20;99.90
27795;DHT22;15176;50.844;4.412;2023-03-23T08:27:35;13.20;99.90
27795;DHT22;15176;50.844;4.412;2023-03-23T08:30:02;13.30;99.90
27795;DHT22;15176;50.844;4.412;2023-03-23T08:32:30;13.20;99.90
27795;DHT22;15176;50.844;4.412;2023-03-23T08:34:56;13.20;99.90
27795;DHT22;15176;50.844;4.412;2023-03-23T08:37:22;13.00;99.90
27795;DHT22;15176;50.844;4.412;2023-03-23T08:39:53;12.80;99.90
27795;DHT22;15176;50.844;4.412;2023-03-23T08:42:19;12.70;99.90
27795;DHT22;15176;50.844;4.412;2023-03-23T08:44:45;12.70;99.90
27795;DHT22;15176;50.844;4.412;2023-03-23T08:47:11;12.60;99.90
27795;DHT22;15176;50.844;4.412;2023-03-23T08:49:37;12.60;99.90
27795;DHT22;15176;50.844;4.412;2023-03-23T08:52:08;12.90;99.90
27795;DHT22;15176;50.844;4.412;2023-03-23T08:54:35;13.00;99.90
27795;DHT22;15176;50.844;4.412;2023-03-23T08:57:07;13.00;99.90
27795;DHT22;15176;50.844;4.412;2023-03-23T08:59:33;12.80;99.90
27795;DHT22;15176;50.844;4.412;2023-03-23T09:02:00;13.00;99.90
27795;DHT22;15176;50.844;4.412;2023-03-23T09:04:26;13.10;99.90
27795;DHT22;15176;50.844;4.412;2023-03-23T09:06:51;13.20;99.90
27795;DHT22;15176;50.844;4.412;2023-03-23T09:09:17;13.40;99.90
27795;DHT22;15176;50.844;4.412;2023-03-23T09:11:43;13.20;99.90
27795;DHT22;15176;50.844;4.412;2023-03-23T09:14:13;13.40;99.90
27795;DHT22;15176;50.844;4.412;2023-03-23T09:16:40;13.70;99.90
27795;DHT22;15176;50.844;4.412;2023-03-23T09:19:06;13.60;99.90
27795;DHT22;15176;50.844;4.412;2023-03-23T09:21:34;13.60;99.90
27795;DHT22;15176;50.844;4.412;2023-03-23T09:24:07;13.40;99.90
27795;DHT22;15176;50.844;4.412;2023-03-23T09:26:33;13.50;99.90
27795;DHT22;15176;50.844;4.412;2023-03-23T09:28:59;13.50;99.90
27795;DHT22;15176;50.844;4.412;2023-03-23T09:31:25;13.60;99.90
27795;DHT22;15176;50.844;4.412;2023-03-23T09:33:54;13.40;99.90
27795;DHT22;15176;50.844;4.412;2023-03-23T09:36:22;13.60;99.90
27795;DHT22;15176;50.844;4.412;2023-03-23T09:38:51;13.60;99.90
27795;DHT22;15176;50.844;4.412;2023-03-23T09:41:57;13.40;99.90
27795;DHT22;15176;50.844;4.412;2023-03-23T09:50:31;14.70;99.90
27795;DHT22;15176;50.844;4.412;2023-03-23T09:55:26;15.30;99.90
27795;DHT22;15176;50.844;4.412;2023-03-23T09:58:16;15.50;99.90
27795;DHT22;15176;50.844;4.412;2023-03-23T10:00:54;15.80;99.90
27795;DHT22;15176;50.844;4.412;2023-03-23T10:03:42;15.60;99.90
27795;DHT22;15176;50.844;4.412;2023-03-23T10:06:12;15.40;99.90
27795;DHT22;15176;50.844;4.412;2023-03-23T10:08:52;15.50;99.90
27795;DHT22;15176;50.844;4.412;2023-03-23T10:16:40;15.30;99.90
27795;DHT22;15176;50.844;4.412;2023-03-23T10:22:11;15.10;99.90
27795;DHT22;15176;50.844;4.412;2023-03-23T10:25:29;15.10;99.90
27795;DHT22;15176;50.844;4.412;2023-03-23T10:27:45;15.10;99.90
27795;DHT22;15176;50.844;4.412;2023-03-23T10:30:24;15.10;99.90
27795;DHT22;15176;50.844;4.412;2023-03-23T10:33:12;15.20;99.90
27795;DHT22;15176;50.844;4.412;2023-03-23T10:35:52;15.10;99.90
27795;DHT22;15176;50.844;4.412;2023-03-23T10:38:26;15.10;99.90
27795;DHT22;15176;50.844;4.412;2023-03-23T10:41:06;15.20;99.90
27795;DHT22;15176;50.844;4.412;2023-03-23T10:43:37;15.30;99.90
27795;DHT22;15176;50.844;4.412;2023-03-23T10:49:08;14.90;99.90
27795;DHT22;15176;50.844;4.412;2023-03-23T10:51:49;15.00;99.90
27795;DHT22;15176;50.844;4.412;2023-03-23T10:54:31;15.30;99.90
27795;DHT22;15176;50.844;4.412;2023-03-23T10:56:59;15.50;99.90
27795;DHT22;15176;50.844;4.412;2023-03-23T10:59:30;15.80;99.90
27795;DHT22;15176;50.844;4.412;2023-03-23T11:02:02;15.70;99.90
27795;DHT22;15176;50.844;4.412;2023-03-23T11:04:32;15.80;99.90
27795;DHT22;15176;50.844;4.412;2023-03-23T11:07:01;15.70;99.90
27795;DHT22;15176;50.844;4.412;2023-03-23T11:09:39;15.70;99.90
27795;DHT22;15176;50.844;4.412;2023-03-23T11:12:18;15.80;99.90
27795;DHT22;15176;50.844;4.412;2023-03-23T11:14:44;16.20;99.90
27795;DHT22;15176;50.844;4.412;2023-03-23T11:17:23;16.30;99.90
27795;DHT22;15176;50.844;4.412;2023-03-23T11:19:50;16.50;99.90
27795;DHT22;15176;50.844;4.412;2023-03-23T11:22:36;16.30;99.90
27795;DHT22;15176;50.844;4.412;2023-03-23T11:25:04;16.00;99.90
27795;DHT22;15176;50.844;4.412;2023-03-23T11:27:30;15.90;99.90
27795;DHT22;15176;50.844;4.412;2023-03-23T11:30:01;15.80;99.90
27795;DHT22;15176;50.844;4.412;2023-03-23T11:32:34;15.90;99.90
27795;DHT22;15176;50.844;4.412;2023-03-23T11:35:04;16.00;99.90
27795;DHT22;15176;50.844;4.412;2023-03-23T11:37:57;16.10;99.90
27795;DHT22;15176;50.844;4.412;2023-03-23T11:40:31;16.90;99.90
27795;DHT22;15176;50.844;4.412;2023-03-23T11:43:00;17.70;99.90
27795;DHT22;15176;50.844;4.412;2023-03-23T11:45:38;18.00;99.90
27795;DHT22;15176;50.844;4.412;2023-03-23T11:50:53;18.80;99.90
27795;DHT22;15176;50.844;4.412;2023-03-23T11:56:23;18.90;99.90
27795;DHT22;15176;50.844;4.412;2023-03-23T11:58:49;18.30;99.90
27795;DHT22;15176;50.844;4.412;2023-03-23T12:04:32;18.30;99.90
27795;DHT22;15176;50.844;4.412;2023-03-23T12:16:02;17.90;99.90
27795;DHT22;15176;50.844;4.412;2023-03-23T12:22:46;18.30;99.90
27795;DHT22;15176;50.844;4.412;2023-03-23T12:25:38;18.50;99.90
27795;DHT22;15176;50.844;4.412;2023-03-23T12:28:26;18.50;99.90
27795;DHT22;15176;50.844;4.412;2023-03-23T12:31:20;18.20;99.90
27795;DHT22;15176;50.844;4.412;2023-03-23T12:42:43;18.40;99.90
27795;DHT22;15176;50.844;4.412;2023-03-23T12:48:23;18.20;99.90
27795;DHT22;15176;50.844;4.412;2023-03-23T12:51:04;18.00;99.90
27795;DHT22;15176;50.844;4.412;2023-03-23T12:53:48;18.10;99.90
27795;DHT22;15176;50.844;4.412;2023-03-23T12:56:37;18.50;99.90
27795;DHT22;15176;50.844;4.412;2023-03-23T12:59:15;18.30;99.90
27795;DHT22;15176;50.844;4.412;2023-03-23T13:01:47;18.10;99.90
27795;DHT22;15176;50.844;4.412;2023-03-23T13:04:21;18.00;99.90
27795;DHT22;15176;50.844;4.412;2023-03-23T13:06:48;18.00;99.90
27795;DHT22;15176;50.844;4.412;2023-03-23T13:09:22;18.00;99.90
27795;DHT22;15176;50.844;4.412;2023-03-23T13:11:50;18.40;99.90
27795;DHT22;15176;50.844;4.412;2023-03-23T13:17:36;18.90;99.90
27795;DHT22;15176;50.844;4.412;2023-03-23T13:23:13;18.80;99.90
27795;DHT22;15176;50.844;4.412;2023-03-23T13:28:18;19.00;99.90
27795;DHT22;15176;50.844;4.412;2023-03-23T13:30:54;18.90;99.90
27795;DHT22;15176;50.844;4.412;2023-03-23T13:33:33;18.90;99.90
27795;DHT22;15176;50.844;4.412;2023-03-23T13:36:29;19.10;99.90
27795;DHT22;15176;50.844;4.412;2023-03-23T13:38:58;19.20;99.90
27795;DHT22;15176;50.844;4.412;2023-03-23T13:41:25;18.80;99.90
27795;DHT22;15176;50.844;4.412;2023-03-23T13:43:54;18.20;99.90
27795;DHT22;15176;50.844;4.412;2023-03-23T13:46:30;18.20;99.90
27795;DHT22;15176;50.844;4.412;2023-03-23T13:59:31;17.10;99.90
27795;DHT22;15176;50.844;4.412;2023-03-23T14:02:27;17.10;99.90
27795;DHT22;15176;50.844;4.412;2023-03-23T14:04:54;16.80;99.90
27795;DHT22;15176;50.844;4.412;2023-03-23T14:07:20;16.70;99.90
27795;DHT22;15176;50.844;4.412;2023-03-23T14:09:46;16.60;99.90
27795;DHT22;15176;50.844;4.412;2023-03-23T14:12:27;16.30;99.90
27795;DHT22;15176;50.844;4.412;2023-03-23T14:15:00;16.30;99.90
27795;DHT22;15176;50.844;4.412;2023-03-23T14:17:43;16.50;99.90
27795;DHT22;15176;50.844;4.412;2023-03-23T14:20:26;16.50;99.90
27795;DHT22;15176;50.844;4.412;2023-03-23T14:22:55;16.40;99.90
27795;DHT22;15176;50.844;4.412;2023-03-23T14:25:22;16.70;99.90
27795;DHT22;15176;50.844;4.412;2023-03-23T14:27:58;16.90;99.90
27795;DHT22;15176;50.844;4.412;2023-03-23T14:30:26;17.20;99.90
27795;DHT22;15176;50.844;4.412;2023-03-23T14:32:54;17.20;99.90
27795;DHT22;15176;50.844;4.412;2023-03-23T14:35:33;17.30;99.90
27795;DHT22;15176;50.844;4.412;2023-03-23T14:37:59;17.20;99.90
27795;DHT22;15176;50.844;4.412;2023-03-23T14:40:29;17.00;99.90
27795;DHT22;15176;50.844;4.412;2023-03-23T14:42:56;16.80;99.90
27795;DHT22;15176;50.844;4.412;2023-03-23T14:45:24;16.80;99.90
27795;DHT22;15176;50.844;4.412;2023-03-23T14:48:12;16.80;99.90
27795;DHT22;15176;50.844;4.412;2023-03-23T14:50:40;17.20;99.90
27795;DHT22;15176;50.844;4.412;2023-03-23T14:55:49;16.50;99.90
27795;DHT22;15176;50.844;4.412;2023-03-23T14:58:17;16.50;99.90
27795;DHT22;15176;50.844;4.412;2023-03-23T15:03:25;16.80;99.90
27795;DHT22;15176;50.844;4.412;2023-03-23T15:05:56;17.00;99.90
27795;DHT22;15176;50.844;4.412;2023-03-23T15:08:32;17.20;99.90
27795;DHT22;15176;50.844;4.412;2023-03-23T15:13:37;17.40;99.90
27795;DHT22;15176;50.844;4.412;2023-03-23T15:16:12;17.70;99.90
27795;DHT22;15176;50.844;4.412;2023-03-23T15:18:46;17.90;99.90
27795;DHT22;15176;50.844;4.412;2023-03-23T15:21:46;17.80;99.90
27795;DHT22;15176;50.844;4.412;2023-03-23T15:24:27;17.90;99.90
27795;DHT22;15176;50.844;4.412;2023-03-23T15:27:14;18.30;99.90
27795;DHT22;15176;50.844;4.412;2023-03-23T15:32:44;17.50;99.90
27795;DHT22;15176;50.844;4.412;2023-03-23T15:35:35;17.30;99.90
27795;DHT22;15176;50.844;4.412;2023-03-23T15:38:30;17.10;99.90
27795;DHT22;15176;50.844;4.412;2023-03-23T15:40:59;17.10;99.90
27795;DHT22;15176;50.844;4.412;2023-03-23T15:43:48;17.10;99.90
27795;DHT22;15176;50.844;4.412;2023-03-23T15:48:52;17.30;99.90
27795;DHT22;15176;50.844;4.412;2023-03-23T15:51:29;17.30;99.90
27795;DHT22;15176;50.844;4.412;2023-03-23T15:53:59;16.90;99.90
27795;DHT22;15176;50.844;4.412;2023-03-23T15:56:26;16.70;99.90
27795;DHT22;15176;50.844;4.412;2023-03-23T15:58:52;16.80;99.90
27795;DHT22;15176;50.844;4.412;2023-03-23T16:01:20;17.00;99.90
27795;DHT22;15176;50.844;4.412;2023-03-23T16:03:55;17.40;99.90
27795;DHT22;15176;50.844;4.412;2023-03-23T16:06:25;17.50;99.90
27795;DHT22;15176;50.844;4.412;2023-03-23T16:08:55;17.50;99.90
27795;DHT22;15176;50.844;4.412;2023-03-23T16:11:22;17.20;99.90
27795;DHT22;15176;50.844;4.412;2023-03-23T16:13:48;17.30;99.90
27795;DHT22;15176;50.844;4.412;2023-03-23T16:16:22;17.10;99.90
27795;DHT22;15176;50.844;4.412;2023-03-23T16:18:49;17.20;99.90
27795;DHT22;15176;50.844;4.412;2023-03-23T16:21:17;17.30;99.90
27795;DHT22;15176;50.844;4.412;2023-03-23T16:23:43;17.50;99.90
27795;DHT22;15176;50.844;4.412;2023-03-23T16:26:11;17.00;99.90
27795;DHT22;15176;50.844;4.412;2023-03-23T16:28:38;16.90;99.90
27795;DHT22;15176;50.844;4.412;2023-03-23T16:31:05;17.10;99.90
27795;DHT22;15176;50.844;4.412;2023-03-23T16:33:37;17.20;99.90
27795;DHT22;15176;50.844;4.412;2023-03-23T16:36:03;16.70;99.90
27795;DHT22;15176;50.844;4.412;2023-03-23T16:38:29;16.60;99.90
27795;DHT22;15176;50.844;4.412;2023-03-23T16:41:01;16.70;99.90
27795;DHT22;15176;50.844;4.412;2023-03-23T16:43:28;16.70;99.90
27795;DHT22;15176;50.844;4.412;2023-03-23T16:45:55;16.50;99.90
27795;DHT22;15176;50.844;4.412;2023-03-23T16:48:22;16.80;99.90
27795;DHT22;15176;50.844;4.412;2023-03-23T16:50:49;16.50;99.90
27795;DHT22;15176;50.844;4.412;2023-03-23T16:53:22;16.20;99.90
27795;DHT22;15176;50.844;4.412;2023-03-23T16:55:53;16.00;99.90
27795;DHT22;15176;50.844;4.412;2023-03-23T16:58:19;16.20;99.90
27795;DHT22;15176;50.844;4.412;2023-03-23T17:00:47;16.10;99.90
27795;DHT22;15176;50.844;4.412;2023-03-23T17:03:13;16.10;99.90
27795;DHT22;15176;50.844;4.412;2023-03-23T17:05:40;16.10;99.90
27795;DHT22;15176;50.844;4.412;2023-03-23T17:08:07;16.20;99.90
27795;DHT22;15176;50.844;4.412;2023-03-23T17:10:40;16.30;99.90
27795;DHT22;15176;50.844;4.412;2023-03-23T17:13:06;16.10;99.90
27795;DHT22;15176;50.844;4.412;2023-03-23T17:15:34;16.10;99.90
27795;DHT22;15176;50.844;4.412;2023-03-23T17:18:00;15.90;99.90
27795;DHT22;15176;50.844;4.412;2023-03-23T17:20:26;16.10;99.90
27795;DHT22;15176;50.844;4.412;2023-03-23T17:22:59;16.40;99.90
27795;DHT22;15176;50.844;4.412;2023-03-23T17:25:26;16.30;99.90
27795;DHT22;15176;50.844;4.412;2023-03-23T17:27:52;16.40;99.90
27795;DHT22;15176;50.844;4.412;2023-03-23T17:30:18;16.10;99.90
27795;DHT22;15176;50.844;4.412;2023-03-23T17:32:45;16.10;99.90
27795;DHT22;15176;50.844;4.412;2023-03-23T17:35:12;16.10;99.90
27795;DHT22;15176;50.844;4.412;2023-03-23T17:37:37;16.10;99.90
27795;DHT22;15176;50.844;4.412;2023-03-23T17:40:04;16.10;99.90